createdAt,value
2019-04-20T00:01:01.666Z,96209.09
2019-04-20T00:03:38.310Z,96213.92
2019-04-20T00:06:06.944Z,96206.75
2019-04-20T00:08:41.153Z,96203.31
2019-04-20T00:11:18.463Z,96209.75
2019-04-20T00:13:54.877Z,96203.80
2019-04-20T00:16:18.900Z,96203.01
2019-04-20T00:18:54.870Z,96204.73
2019-04-20T00:21:42.699Z,96198.39
2019-04-20T00:24:32.405Z,96198.55
2019-04-20T00:27:19.306Z,96195.39
2019-04-20T00:29:49.833Z,96197.86
2019-04-20T00:32:15.580Z,96191.69
2019-04-20T00:34:41.669Z,96193.59
2019-04-20T00:37:12.835Z,96190.60
2019-04-20T00:39:44.785Z,96198.18
2019-04-20T00:42:17.669Z,96188.03
2019-04-20T00:44:56.386Z,96190.55
2019-04-20T00:47:34.369Z,96185.25
2019-04-20T00:50:05.566Z,96185.13
2019-04-20T00:52:43.766Z,96184.92
2019-04-20T00:55:00.102Z,96179.08
2019-04-20T00:57:41.564Z,96190.18
2019-04-20T01:00:21.598Z,96183.27
2019-04-20T01:02:50.507Z,96194.08
2019-04-20T01:05:35.430Z,96191.29
2019-04-20T01:08:06.957Z,96193.76
2019-04-20T01:10:46.459Z,96198.45
2019-04-20T01:13:17.018Z,96186.81
2019-04-20T01:15:51.579Z,96189.73
2019-04-20T01:18:18.835Z,96186.73
2019-04-20T01:20:49.933Z,96187.28
2019-04-20T01:23:23.909Z,96195.28
2019-04-20T01:26:01.237Z,96191.25
2019-04-20T01:28:44.096Z,96189.37
2019-04-20T01:31:12.654Z,96188.37
2019-04-20T01:33:42.643Z,96188.17
2019-04-20T01:36:25.499Z,96187.95
2019-04-20T01:38:55.455Z,96189.41
2019-04-20T01:41:11.683Z,96189.73
2019-04-20T01:43:43.626Z,96197.36
2019-04-20T01:46:18.944Z,96191.28
2019-04-20T01:48:48.203Z,96193.23
2019-04-20T01:51:25.513Z,96191.52
2019-04-20T01:54:18.822Z,96190.83
2019-04-20T01:56:43.495Z,96191.87
2019-04-20T01:59:29.194Z,96191.41
2019-04-20T02:02:18.403Z,96191.84
2019-04-20T02:04:54.122Z,96196.72
2019-04-20T02:07:31.441Z,96193.09
2019-04-20T02:10:02.810Z,96195.59
2019-04-20T02:12:34.595Z,96192.73
2019-04-20T02:15:06.096Z,96193.33
2019-04-20T02:17:43.317Z,96196.20
2019-04-20T02:20:31.632Z,96195.23
2019-04-20T02:22:58.991Z,96197.95
2019-04-20T02:25:16.333Z,96202.20
2019-04-20T02:27:53.176Z,96203.52
2019-04-20T02:30:57.970Z,96208.03
2019-04-20T02:36:15.157Z,96200.91
2019-04-20T02:39:21.876Z,96204.59
2019-04-20T02:44:14.345Z,96215.61
2019-04-20T02:46:57.521Z,96211.47
2019-04-20T02:49:34.097Z,96215.65
2019-04-20T02:51:54.719Z,96210.72
2019-04-20T02:57:03.378Z,96211.70
2019-04-20T03:01:45.523Z,96212.30
2019-04-20T03:04:04.982Z,96210.73
2019-04-20T03:06:53.847Z,96207.52
2019-04-20T03:09:33.088Z,96206.03
2019-04-20T03:12:03.313Z,96211.98
2019-04-20T03:14:29.275Z,96199.88
2019-04-20T03:17:10.345Z,96207.34
2019-04-20T03:19:31.272Z,96210.50
2019-04-20T03:22:13.699Z,96210.73
2019-04-20T03:24:51.392Z,96213.83
2019-04-20T03:27:30.654Z,96213.97
2019-04-20T03:30:40.328Z,96211.34
2019-04-20T03:35:29.817Z,96206.27
2019-04-20T03:37:56.834Z,96216.98
2019-04-20T03:40:21.589Z,96214.32
2019-04-20T03:42:38.273Z,96213.70
2019-04-20T03:45:14.970Z,96209.26
2019-04-20T03:47:58.705Z,96215.53
2019-04-20T03:50:41.323Z,96214.44
2019-04-20T03:53:14.199Z,96222.89
2019-04-20T03:56:21.567Z,96223.61
2019-04-20T03:58:47.194Z,96220.50
2019-04-20T04:01:44.482Z,96227.02
2019-04-20T04:04:10.646Z,96223.86
2019-04-20T04:06:33.093Z,96223.20
2019-04-20T04:09:02.754Z,96221.15
2019-04-20T04:11:40.309Z,96234.09
2019-04-20T04:13:58.753Z,96238.05
2019-04-20T04:16:37.235Z,96241.15
2019-04-20T04:19:15.398Z,96234.90
2019-04-20T04:21:51.778Z,96233.82
2019-04-20T04:24:22.918Z,96235.10
2019-04-20T04:26:54.849Z,96236.72
2019-04-20T04:29:35.638Z,96236.27
2019-04-20T04:32:12.778Z,96227.63
2019-04-20T04:34:40.507Z,96233.83
2019-04-20T04:37:13.173Z,96239.14
2019-04-20T04:39:47.476Z,96241.58
2019-04-20T04:42:35.153Z,96242.23
2019-04-20T04:44:44.701Z,96245.14
2019-04-20T04:47:06.699Z,96245.26
2019-04-20T04:49:40.191Z,96244.20
2019-04-20T04:52:13.369Z,96249.46
2019-04-20T04:54:52.956Z,96249.04
2019-04-20T04:57:14.009Z,96252.09
2019-04-20T04:59:45.058Z,96257.92
2019-04-20T05:02:16.216Z,96256.53
2019-04-20T05:05:31.377Z,96258.80
2019-04-20T05:07:54.455Z,96257.73
2019-04-20T05:10:15.978Z,96257.10
2019-04-20T05:12:48.196Z,96260.51
2019-04-20T05:15:32.414Z,96262.31
2019-04-20T05:18:16.175Z,96259.87
2019-04-20T05:20:54.644Z,96255.24
2019-04-20T05:23:24.323Z,96262.48
2019-04-20T05:26:14.316Z,96262.93
2019-04-20T05:28:38.093Z,96256.08
2019-04-20T05:31:02.951Z,96260.97
2019-04-20T05:33:58.486Z,96255.66
2019-04-20T05:36:23.296Z,96249.14
2019-04-20T05:39:02.735Z,96248.98
2019-04-20T05:41:26.819Z,96253.02
2019-04-20T05:44:16.728Z,96249.19
2019-04-20T05:46:59.969Z,96249.90
2019-04-20T05:49:27.012Z,96248.02
2019-04-20T05:52:11.801Z,96245.66
2019-04-20T05:54:39.228Z,96248.59
2019-04-20T05:57:17.213Z,96242.09
2019-04-20T05:59:46.965Z,96238.62
2019-04-20T06:02:17.021Z,96248.05
2019-04-20T06:07:20.927Z,96243.68
2019-04-20T06:09:54.379Z,96244.86
2019-04-20T06:12:33.099Z,96242.73
2019-04-20T06:15:12.761Z,96242.78
2019-04-20T06:18:16.713Z,96246.27
2019-04-20T06:21:00.453Z,96240.28
2019-04-20T06:23:38.646Z,96251.81
2019-04-20T06:26:33.618Z,96255.61
2019-04-20T06:28:35.346Z,96260.48
2019-04-20T06:31:18.019Z,96254.73
2019-04-20T06:34:27.979Z,96255.99
2019-04-20T06:36:51.911Z,96257.80
2019-04-20T06:39:27.739Z,96254.61
2019-04-20T06:44:31.977Z,96258.14
2019-04-20T06:52:37.417Z,96256.73
2019-04-20T06:55:05.536Z,96251.05
2019-04-20T06:57:50.309Z,96255.27
2019-04-20T07:00:18.000Z,96250.91
2019-04-20T07:02:53.050Z,96246.88
2019-04-20T07:08:00.783Z,96241.10
2019-04-20T07:10:34.330Z,96243.55
2019-04-20T07:12:55.649Z,96245.88
2019-04-20T07:15:43.675Z,96246.49
2019-04-20T07:18:26.179Z,96230.66
2019-04-20T07:21:09.523Z,96225.56
2019-04-20T07:23:42.692Z,96233.05
2019-04-20T07:26:16.576Z,96238.66
2019-04-20T07:28:55.731Z,96230.91
2019-04-20T07:31:18.108Z,96232.77
2019-04-20T07:33:52.045Z,96227.25
2019-04-20T07:36:32.251Z,96223.92
2019-04-20T07:39:03.990Z,96227.84
2019-04-20T07:41:43.280Z,96233.98
2019-04-20T07:44:11.778Z,96238.59
2019-04-20T07:46:46.879Z,96239.88
2019-04-20T07:49:12.737Z,96243.61
2019-04-20T07:51:29.660Z,96232.35
2019-04-20T07:54:24.741Z,96242.57
2019-04-20T07:56:47.643Z,96230.41
2019-04-20T07:59:14.359Z,96233.95
2019-04-20T08:02:20.958Z,96236.58
2019-04-20T08:04:56.352Z,96230.45
2019-04-20T08:07:13.603Z,96234.31
2019-04-20T08:09:51.458Z,96227.73
2019-04-20T08:12:49.937Z,96231.56
2019-04-20T08:15:32.434Z,96216.56
2019-04-20T08:17:53.909Z,96220.82
2019-04-20T08:20:23.410Z,96223.62
2019-04-20T08:22:58.796Z,96236.07
2019-04-20T08:25:20.273Z,96227.58
2019-04-20T08:28:25.003Z,96227.61
2019-04-20T08:31:26.886Z,96229.41
2019-04-20T08:34:12.154Z,96229.41
2019-04-20T08:36:39.258Z,96241.98
2019-04-20T08:39:30.458Z,96236.35
2019-04-20T08:41:45.271Z,96223.95
2019-04-20T08:44:42.650Z,96228.55
2019-04-20T08:47:01.800Z,96219.03
2019-04-20T08:49:29.791Z,96219.48
2019-04-20T08:52:08.271Z,96224.13
2019-04-20T08:54:26.690Z,96218.86
2019-04-20T08:56:47.986Z,96217.05
2019-04-20T08:59:14.301Z,96216.98
2019-04-20T09:01:46.696Z,96215.22
2019-04-20T09:04:22.974Z,96220.45
2019-04-20T09:07:02.353Z,96215.22
2019-04-20T09:10:00.557Z,96222.64
2019-04-20T09:12:15.832Z,96215.53
2019-04-20T09:14:34.673Z,96210.70
2019-04-20T09:17:13.842Z,96203.47
2019-04-20T09:19:52.733Z,96202.64
2019-04-20T09:22:49.464Z,96202.48
2019-04-20T09:25:49.370Z,96212.35
2019-04-20T09:28:15.653Z,96207.66
2019-04-20T09:30:52.217Z,96200.63
2019-04-20T09:33:51.678Z,96196.27
2019-04-20T09:36:24.003Z,96199.97
2019-04-20T09:39:26.785Z,96190.77
2019-04-20T09:42:08.802Z,96191.27
2019-04-20T09:44:42.872Z,96189.79
2019-04-20T09:47:14.183Z,96186.22
2019-04-20T09:49:56.844Z,96181.59
2019-04-20T09:52:31.221Z,96181.08
2019-04-20T09:55:04.295Z,96175.17
2019-04-20T09:57:43.865Z,96185.82
2019-04-20T10:00:12.081Z,96176.70
2019-04-20T10:02:32.555Z,96168.74
2019-04-20T10:05:02.033Z,96177.16
2019-04-20T10:07:37.277Z,96173.81
2019-04-20T10:10:20.293Z,96174.16
2019-04-20T10:12:41.871Z,96165.13
2019-04-20T10:15:19.023Z,96163.03
2019-04-20T10:17:47.807Z,96155.42
2019-04-20T10:20:26.740Z,96159.78
2019-04-20T10:22:51.799Z,96160.63
2019-04-20T10:25:22.921Z,96157.55
2019-04-20T10:27:54.073Z,96156.05
2019-04-20T10:30:26.316Z,96153.02
2019-04-20T10:32:57.566Z,96157.30
2019-04-20T10:35:29.757Z,96151.80
2019-04-20T10:38:07.606Z,96157.45
2019-04-20T10:40:51.857Z,96150.84
2019-04-20T10:43:12.111Z,96152.63
2019-04-20T10:45:44.750Z,96154.23
2019-04-20T10:48:17.358Z,96144.23
2019-04-20T10:50:49.312Z,96146.20
2019-04-20T10:53:21.786Z,96146.54
2019-04-20T10:55:53.527Z,96132.70
2019-04-20T10:58:25.283Z,96133.97
2019-04-20T11:00:57.687Z,96135.55
2019-04-20T11:03:28.980Z,96139.75
2019-04-20T11:06:00.711Z,96141.14
2019-04-20T11:08:32.878Z,96136.28
2019-04-20T11:11:12.925Z,96134.41
2019-04-20T11:13:37.488Z,96139.70
2019-04-20T11:16:08.726Z,96124.72
2019-04-20T11:18:39.929Z,96128.57
2019-04-20T11:21:11.412Z,96130.05
2019-04-20T11:23:42.590Z,96116.45
2019-04-20T11:26:14.033Z,96127.63
2019-04-20T11:28:46.213Z,96122.64
2019-04-20T11:31:17.546Z,96119.75
2019-04-20T11:33:48.531Z,96121.92
2019-04-20T11:36:19.668Z,96103.16
2019-04-20T11:38:51.165Z,96108.64
2019-04-20T11:41:26.176Z,96110.37
2019-04-20T11:43:55.741Z,96099.16
2019-04-20T11:46:27.044Z,96103.23
2019-04-20T11:48:59.363Z,96098.68
2019-04-20T11:51:31.763Z,96101.78
2019-04-20T11:54:04.208Z,96106.07
2019-04-20T11:56:40.353Z,96097.38
2019-04-20T11:59:09.572Z,96108.21
2019-04-20T12:02:14.303Z,96100.84
2019-04-20T12:05:04.047Z,96096.22
2019-04-20T12:07:24.786Z,96095.42
2019-04-20T12:10:04.748Z,96094.98
2019-04-20T12:12:40.095Z,96089.59
2019-04-20T12:15:04.387Z,96091.06
2019-04-20T12:17:35.686Z,96085.92
2019-04-20T12:20:08.089Z,96087.88
2019-04-20T12:22:40.147Z,96077.84
2019-04-20T12:25:12.060Z,96079.62
2019-04-20T12:27:50.758Z,96084.58
2019-04-20T12:30:17.545Z,96076.00
2019-04-20T12:32:52.616Z,96077.84
2019-04-20T12:35:22.825Z,96071.52
2019-04-20T12:37:54.667Z,96071.90
2019-04-20T12:40:26.331Z,96070.37
2019-04-20T12:42:57.579Z,96068.80
2019-04-20T12:45:29.350Z,96070.44
2019-04-20T12:48:01.748Z,96069.22
2019-04-20T12:50:32.948Z,96067.36
2019-04-20T12:53:04.433Z,96064.13
2019-04-20T12:55:36.760Z,96063.62
2019-04-20T12:58:08.339Z,96060.96
2019-04-20T13:00:49.676Z,96066.03
2019-04-20T13:03:21.545Z,96063.89
2019-04-20T13:05:54.100Z,96066.17
2019-04-20T13:08:33.656Z,96059.44
2019-04-20T13:11:08.705Z,96056.03
2019-04-20T13:13:52.605Z,96053.77
2019-04-20T13:16:34.407Z,96042.59
2019-04-20T13:19:05.757Z,96052.83
2019-04-20T13:21:36.858Z,96052.17
2019-04-20T13:24:09.290Z,96042.59
2019-04-20T13:26:40.642Z,96044.68
2019-04-20T13:29:12.955Z,96044.50
2019-04-20T13:31:44.114Z,96039.09
2019-04-20T13:34:15.350Z,96035.52
2019-04-20T13:36:46.365Z,96033.74
2019-04-20T13:39:17.334Z,96029.02
2019-04-20T13:42:00.934Z,96033.13
2019-04-20T13:44:22.030Z,96030.02
2019-04-20T13:46:53.109Z,96017.88
2019-04-20T13:49:24.984Z,96027.47
2019-04-20T13:51:57.066Z,96031.13
2019-04-20T13:54:28.622Z,96025.56
2019-04-20T13:57:02.007Z,96016.23
2019-04-20T13:59:46.207Z,96011.64
2019-04-20T14:02:42.696Z,96006.47
2019-04-20T14:05:15.404Z,96007.41
2019-04-20T14:07:47.277Z,96001.44
2019-04-20T14:10:19.637Z,95997.21
2019-04-20T14:13:00.566Z,95990.44
2019-04-20T14:15:24.818Z,95995.03
2019-04-20T14:17:57.179Z,96001.92
2019-04-20T14:20:29.748Z,95997.75
2019-04-20T14:23:01.074Z,95994.23
2019-04-20T14:25:33.255Z,95986.56
2019-04-20T14:28:04.956Z,95987.27
2019-04-20T14:30:37.290Z,95990.92
2019-04-20T14:33:08.619Z,95983.45
2019-04-20T14:35:40.837Z,95985.05
2019-04-20T14:38:13.097Z,95982.14
2019-04-20T14:40:44.270Z,95984.59
2019-04-20T14:43:17.120Z,95973.97
2019-04-20T14:45:48.226Z,95976.37
2019-04-20T14:48:20.643Z,95966.35
2019-04-20T14:50:51.944Z,95967.94
2019-04-20T14:53:23.307Z,95965.86
2019-04-20T14:55:55.578Z,95968.73
2019-04-20T14:58:57.782Z,95960.86
2019-04-20T15:01:40.896Z,95964.20
2019-04-20T15:04:17.791Z,95961.81
2019-04-20T15:06:44.825Z,95956.49
2019-04-20T15:09:16.937Z,95952.63
2019-04-20T15:11:48.486Z,95955.05
2019-04-20T15:14:20.878Z,95949.44
2019-04-20T15:16:52.866Z,95950.42
2019-04-20T15:19:37.583Z,95952.84
2019-04-20T15:22:27.574Z,95944.47
2019-04-20T15:24:59.845Z,95935.45
2019-04-20T15:27:31.088Z,95939.86
2019-04-20T15:30:02.739Z,95932.00
2019-04-20T15:32:34.752Z,95935.98
2019-04-20T15:35:07.120Z,95928.23
2019-04-20T15:37:39.517Z,95929.73
2019-04-20T15:40:11.219Z,95934.38
2019-04-20T15:42:51.617Z,95934.30
2019-04-20T15:45:15.763Z,95932.39
2019-04-20T15:47:47.976Z,95931.66
2019-04-20T15:50:20.247Z,95927.30
2019-04-20T15:52:54.485Z,95926.12
2019-04-20T15:55:30.368Z,95927.20
2019-04-20T15:57:57.607Z,95926.89
2019-04-20T16:00:28.735Z,95928.58
2019-04-20T16:03:03.477Z,95926.98
2019-04-20T16:05:42.970Z,95918.56
2019-04-20T16:08:30.276Z,95919.99
2019-04-20T16:11:01.625Z,95914.45
2019-04-20T16:13:37.974Z,95918.24
2019-04-20T16:16:07.435Z,95914.52
2019-04-20T16:18:39.125Z,95918.30
2019-04-20T16:21:16.144Z,95912.50
2019-04-20T16:23:48.554Z,95915.36
2019-04-20T16:26:27.616Z,95910.62
2019-04-20T16:28:59.745Z,95899.64
2019-04-20T16:31:30.985Z,95906.59
2019-04-20T16:34:03.222Z,95905.89
2019-04-20T16:36:34.708Z,95900.55
2019-04-20T16:39:10.623Z,95894.42
2019-04-20T16:41:42.535Z,95895.02
2019-04-20T16:44:13.631Z,95889.34
2019-04-20T16:46:45.821Z,95898.16
2019-04-20T16:49:19.280Z,95893.88
2019-04-20T16:51:52.632Z,95898.09
2019-04-20T16:54:23.796Z,95892.37
2019-04-20T16:56:54.999Z,95889.18
2019-04-20T16:59:26.152Z,95892.16
2019-04-20T17:01:58.250Z,95892.44
2019-04-20T17:04:30.851Z,95893.37
2019-04-20T17:07:25.008Z,95890.44
2019-04-20T17:09:56.289Z,95895.89
2019-04-20T17:12:28.057Z,95894.68
2019-04-20T17:14:59.330Z,95898.05
2019-04-20T17:17:31.478Z,95886.81
2019-04-20T17:20:03.885Z,95889.92
2019-04-20T17:22:35.188Z,95889.07
2019-04-20T17:25:08.317Z,95891.30
2019-04-20T17:27:53.191Z,95896.27
2019-04-20T17:30:59.312Z,95894.30
2019-04-20T17:33:55.139Z,95896.17
2019-04-20T17:36:21.553Z,95898.38
2019-04-20T17:38:54.219Z,95890.33
2019-04-20T17:41:42.717Z,95891.47
2019-04-20T17:44:09.915Z,95896.41
2019-04-20T17:46:39.136Z,95897.30
2019-04-20T17:49:13.522Z,95896.99
2019-04-20T17:51:58.158Z,95900.01
2019-04-20T17:54:17.709Z,95902.94
2019-04-20T17:56:49.328Z,95899.39
2019-04-20T17:59:22.071Z,95898.02
2019-04-20T18:02:26.621Z,95896.70
2019-04-20T18:05:22.980Z,95898.16
2019-04-20T18:07:52.081Z,95894.70
2019-04-20T18:10:23.206Z,95896.16
2019-04-20T18:12:44.603Z,95900.35
2019-04-20T18:15:31.547Z,95911.79
2019-04-20T18:18:23.673Z,95904.92
2019-04-20T18:20:58.985Z,95908.05
2019-04-20T18:23:36.341Z,95907.80
2019-04-20T18:26:27.571Z,95902.25
2019-04-20T18:28:58.655Z,95902.84
2019-04-20T18:31:41.749Z,95901.41
2019-04-20T18:34:22.184Z,95903.52
2019-04-20T18:36:51.468Z,95903.95
2019-04-20T18:39:29.019Z,95902.42
2019-04-20T18:42:07.905Z,95904.64
2019-04-20T18:44:47.451Z,95901.77
2019-04-20T18:47:23.850Z,95909.08
2019-04-20T18:49:46.591Z,95905.82
2019-04-20T18:52:07.147Z,95911.27
2019-04-20T18:54:42.539Z,95913.76
2019-04-20T18:57:16.219Z,95914.78
2019-04-20T18:59:50.461Z,95910.66
2019-04-20T19:02:23.093Z,95921.69
2019-04-20T19:04:50.091Z,95916.73
2019-04-20T19:07:21.815Z,95920.73
2019-04-20T19:10:00.337Z,95925.42
2019-04-20T19:12:38.882Z,95919.42
2019-04-20T19:15:37.316Z,95921.14
2019-04-20T19:18:10.098Z,95926.24
2019-04-20T19:20:39.371Z,95927.73
2019-04-20T19:23:10.525Z,95923.94
2019-04-20T19:25:42.824Z,95924.77
2019-04-20T19:28:19.482Z,95929.70
2019-04-20T19:31:01.572Z,95934.91
2019-04-20T19:33:35.722Z,95931.25
2019-04-20T19:36:04.718Z,95936.22
2019-04-20T19:38:41.825Z,95941.13
2019-04-20T19:41:13.893Z,95934.42
2019-04-20T19:43:45.123Z,95938.45
2019-04-20T19:46:39.390Z,95942.95
2019-04-20T19:48:45.008Z,95935.92
2019-04-20T19:51:29.827Z,95938.20
2019-04-20T19:54:12.165Z,95939.88
2019-04-20T19:56:33.765Z,95939.88
2019-04-20T19:59:03.032Z,95943.23
2019-04-20T20:01:21.891Z,95940.81
2019-04-20T20:03:57.593Z,95945.83
2019-04-20T20:06:32.537Z,95944.83
2019-04-20T20:09:04.226Z,95946.34
2019-04-20T20:11:38.461Z,95946.70
2019-04-20T20:14:09.791Z,95949.05
2019-04-20T20:16:58.845Z,95946.87
2019-04-20T20:19:27.753Z,95944.59
2019-04-20T20:21:58.919Z,95946.36
2019-04-20T20:24:18.012Z,95941.56
2019-04-20T20:26:56.330Z,95944.78
2019-04-20T20:29:33.438Z,95943.70
2019-04-20T20:32:10.158Z,95948.73
2019-04-20T20:34:36.034Z,95947.52
2019-04-20T20:37:06.301Z,95948.30
2019-04-20T20:39:37.165Z,95951.16
2019-04-20T20:42:20.627Z,95952.11
2019-04-20T20:44:48.797Z,95951.34
2019-04-20T20:47:36.739Z,95948.00
2019-04-20T20:50:08.314Z,95949.76
2019-04-20T20:52:32.507Z,95952.34
2019-04-20T20:55:00.678Z,95948.73
2019-04-20T20:57:35.429Z,95948.48
2019-04-20T21:00:05.744Z,95951.81
2019-04-20T21:02:42.043Z,95944.46
2019-04-20T21:05:03.822Z,95944.61
2019-04-20T21:07:36.540Z,95946.99
2019-04-20T21:10:10.350Z,95952.38
2019-04-20T21:12:46.720Z,95953.00
2019-04-20T21:15:20.416Z,95951.94
2019-04-20T21:18:09.095Z,95944.63
2019-04-20T21:20:46.505Z,95943.64
2019-04-20T21:23:06.994Z,95946.31
2019-04-20T21:25:37.694Z,95952.27
2019-04-20T21:28:06.525Z,95942.50
2019-04-20T21:33:20.775Z,95942.34
2019-04-20T21:35:52.166Z,95951.15
2019-04-20T21:38:24.596Z,95958.58
2019-04-20T21:41:03.400Z,95947.33
2019-04-20T21:43:33.862Z,95949.51
2019-04-20T21:46:04.934Z,95950.23
2019-04-20T21:48:48.730Z,95949.13
2019-04-20T21:51:19.019Z,95946.94
2019-04-20T21:53:40.593Z,95951.47
2019-04-20T21:56:12.199Z,95949.34
2019-04-20T21:58:49.604Z,95944.19
2019-04-20T22:01:27.259Z,95938.63
2019-04-20T22:03:54.223Z,95937.41
2019-04-20T22:06:26.644Z,95940.50
2019-04-20T22:09:01.084Z,95931.83
2019-04-20T22:11:31.591Z,95932.09
2019-04-20T22:14:09.406Z,95928.45
2019-04-20T22:16:41.737Z,95938.95
2019-04-20T22:19:25.069Z,95929.63
2019-04-20T22:21:53.400Z,95937.75
2019-04-20T22:24:37.190Z,95924.77
2019-04-20T22:26:54.859Z,95929.21
2019-04-20T22:29:20.211Z,95921.73
2019-04-20T22:32:00.485Z,95914.56
2019-04-20T22:34:28.050Z,95918.02
2019-04-20T22:36:58.223Z,95913.90
2019-04-20T22:39:39.825Z,95911.96
2019-04-20T22:42:09.250Z,95920.88
2019-04-20T22:44:39.251Z,95917.30
2019-04-20T22:47:13.798Z,95908.02
2019-04-20T22:50:03.493Z,95905.34
2019-04-20T22:52:29.375Z,95917.85
2019-04-20T22:55:12.536Z,95906.53
2019-04-20T22:57:36.275Z,95895.70
2019-04-20T23:00:02.156Z,95891.54
2019-04-20T23:02:28.284Z,95891.34
2019-04-20T23:05:00.711Z,95883.84
2019-04-20T23:07:32.704Z,95881.04
2019-04-20T23:10:05.460Z,95892.50
2019-04-20T23:12:40.219Z,95889.11
2019-04-20T23:15:10.370Z,95896.03
2019-04-20T23:17:45.904Z,95886.07
2019-04-20T23:20:24.655Z,95884.97
2019-04-20T23:22:51.187Z,95883.93
2019-04-20T23:25:21.014Z,95881.08
2019-04-20T23:28:00.513Z,95880.52
2019-04-20T23:30:33.525Z,95877.03
2019-04-20T23:33:00.021Z,95869.89
2019-04-20T23:35:31.724Z,95875.83
2019-04-20T23:38:11.225Z,95882.08
2019-04-20T23:40:37.437Z,95870.34
2019-04-20T23:43:24.975Z,95877.46
2019-04-20T23:46:19.637Z,95870.23
2019-04-20T23:49:13.535Z,95871.78
2019-04-20T23:52:00.690Z,95872.51
2019-04-20T23:54:19.818Z,95872.28
2019-04-20T23:56:45.881Z,95873.02
2019-04-20T23:59:19.250Z,95870.98
